Time;durP1;ratioP1;P1;durP2;ratioP2;P2;SDS_P1;SDS_P2;PMS_P1;PMS_P2;Temp;Humidity;BMP_temperature;BMP_pressure;BME280_temperature;BME280_humidity;BME280_pressure;Samples;Min_cycle;Max_cycle;Signal;HPM_P1;HPM_P2
2024/02/21 00:01:44;;;;;;;9.35;4.75;;;;;;;;;;4862382;29;20296;-81
2024/02/21 00:04:13;;;;;;;10.68;4.85;;;;;;;;;;4844475;29;20737;-82
2024/02/21 00:06:41;;;;;;;18.85;6.40;;;;;;;;;;4843071;29;20239;-82
2024/02/21 00:09:09;;;;;;;15.40;5.85;;;;;;;;;;4861297;29;20386;-82
2024/02/21 00:11:38;;;;;;;7.45;5.05;;;;;;;;;;4862690;29;20207;-83
2024/02/21 00:14:06;;;;;;;11.27;5.03;;;;;;;;;;4861266;29;20203;-82
2024/02/21 00:16:36;;;;;;;10.68;4.90;;;;;;;;;;4862280;29;20211;-82
2024/02/21 00:19:05;;;;;;;14.55;5.63;;;;;;;;;;4862620;29;20258;-81
2024/02/21 00:21:33;;;;;;;15.82;6.70;;;;;;;;;;4861790;29;20219;-82
2024/02/21 00:24:01;;;;;;;14.50;6.10;;;;;;;;;;4862262;29;20214;-82
2024/02/21 00:26:29;;;;;;;14.98;6.18;;;;;;;;;;4861930;29;20199;-81
2024/02/21 00:28:57;;;;;;;14.32;4.88;;;;;;;;;;4863018;29;20199;-81
2024/02/21 00:31:26;;;;;;;12.70;6.15;;;;;;;;;;4861703;29;20683;-81
2024/02/21 00:33:55;;;;;;;20.00;7.20;;;;;;;;;;4862243;29;20207;-81
2024/02/21 00:36:24;;;;;;;19.40;6.00;;;;;;;;;;4862279;29;20687;-81
2024/02/21 00:38:52;;;;;;;18.25;6.20;;;;;;;;;;4861835;29;20200;-81
2024/02/21 00:41:20;;;;;;;13.90;6.82;;;;;;;;;;4862107;29;20200;-81
2024/02/21 00:43:50;;;;;;;11.00;6.07;;;;;;;;;;4858530;29;20196;-80
2024/02/21 00:46:18;;;;;;;16.88;6.40;;;;;;;;;;4853628;29;20231;-81
2024/02/21 00:48:46;;;;;;;16.67;6.60;;;;;;;;;;4861391;29;20293;-82
2024/02/21 00:51:16;;;;;;;16.92;6.90;;;;;;;;;;4860894;29;20219;-84
2024/02/21 00:53:44;;;;;;;16.55;6.93;;;;;;;;;;4861806;29;20263;-82
2024/02/21 00:56:12;;;;;;;16.70;7.25;;;;;;;;;;4847522;29;20196;-82
2024/02/21 00:58:41;;;;;;;18.73;6.75;;;;;;;;;;4853693;29;20200;-82
2024/02/21 01:01:09;;;;;;;18.40;6.95;;;;;;;;;;4849867;29;20513;-82
2024/02/21 01:03:37;;;;;;;15.02;7.88;;;;;;;;;;4861443;29;20212;-82
2024/02/21 01:06:08;;;;;;;19.13;8.00;;;;;;;;;;4851580;29;20189;-82
2024/02/21 01:08:37;;;;;;;17.90;7.03;;;;;;;;;;4856731;29;20224;-82
2024/02/21 01:11:07;;;;;;;20.00;8.23;;;;;;;;;;4837816;29;20230;-81
2024/02/21 01:13:35;;;;;;;14.20;7.15;;;;;;;;;;4857034;29;20218;-82
2024/02/21 01:16:04;;;;;;;11.57;7.20;;;;;;;;;;4859092;29;20218;-82
2024/02/21 01:18:32;;;;;;;15.65;7.65;;;;;;;;;;4854045;29;20276;-82
2024/02/21 01:21:01;;;;;;;15.38;7.80;;;;;;;;;;4860350;29;20196;-81
2024/02/21 01:23:29;;;;;;;25.02;8.05;;;;;;;;;;4860301;29;20220;-80
2024/02/21 01:25:59;;;;;;;17.23;7.68;;;;;;;;;;4860082;29;20619;-81
2024/02/21 01:28:27;;;;;;;15.80;7.90;;;;;;;;;;4860164;29;20695;-81
2024/02/21 01:30:55;;;;;;;11.38;6.07;;;;;;;;;;4860369;29;20196;-80
2024/02/21 01:33:23;;;;;;;12.57;7.57;;;;;;;;;;4854107;29;20727;-80
2024/02/21 01:35:52;;;;;;;14.48;7.30;;;;;;;;;;4850457;29;20199;-81
2024/02/21 01:38:20;;;;;;;15.70;6.93;;;;;;;;;;4853533;29;20668;-81
2024/02/21 01:40:49;;;;;;;12.98;6.72;;;;;;;;;;4861131;29;20196;-81
2024/02/21 01:43:19;;;;;;;13.80;6.72;;;;;;;;;;4861105;29;20215;-80
2024/02/21 01:45:50;;;;;;;14.20;7.07;;;;;;;;;;4860804;29;20243;-80
2024/02/21 01:48:19;;;;;;;13.23;6.72;;;;;;;;;;4859427;29;20227;-80
2024/02/21 01:50:48;;;;;;;8.68;5.45;;;;;;;;;;4857128;29;20211;-80
2024/02/21 01:53:18;;;;;;;16.83;7.22;;;;;;;;;;4847324;29;20212;-80
2024/02/21 01:55:46;;;;;;;16.67;7.63;;;;;;;;;;4853259;29;20191;-80
2024/02/21 01:58:15;;;;;;;15.07;6.95;;;;;;;;;;4848798;29;20668;-80
2024/02/21 02:00:45;;;;;;;16.05;7.13;;;;;;;;;;4851190;29;20222;-80
2024/02/21 02:03:16;;;;;;;14.50;6.30;;;;;;;;;;4860273;29;20676;-80
2024/02/21 02:05:45;;;;;;;13.55;6.50;;;;;;;;;;4844074;29;20359;-80
2024/02/21 02:08:14;;;;;;;24.52;8.57;;;;;;;;;;4841416;29;20238;-80
2024/02/21 02:10:43;;;;;;;18.92;7.10;;;;;;;;;;4841453;29;20685;-80
2024/02/21 02:13:11;;;;;;;10.63;7.03;;;;;;;;;;4843067;29;20212;-80
2024/02/21 02:15:40;;;;;;;22.77;8.50;;;;;;;;;;4851431;29;20207;-80
2024/02/21 02:18:09;;;;;;;17.13;9.13;;;;;;;;;;4858278;29;20208;-80
2024/02/21 02:20:38;;;;;;;14.50;7.05;;;;;;;;;;4860075;29;20222;-80
2024/02/21 02:23:09;;;;;;;13.98;6.60;;;;;;;;;;4853065;29;20206;-79
2024/02/21 02:25:38;;;;;;;9.95;7.55;;;;;;;;;;4857928;29;20227;-80
2024/02/21 02:28:07;;;;;;;12.98;7.65;;;;;;;;;;4856892;29;20294;-79
2024/02/21 02:30:36;;;;;;;16.25;8.18;;;;;;;;;;4845399;29;20204;-79
2024/02/21 02:33:04;;;;;;;18.65;8.35;;;;;;;;;;4851440;29;20199;-79
2024/02/21 02:35:35;;;;;;;16.63;8.20;;;;;;;;;;4860048;29;20216;-79
2024/02/21 02:38:03;;;;;;;13.07;8.40;;;;;;;;;;4847748;29;20563;-79
2024/02/21 02:40:32;;;;;;;19.23;8.40;;;;;;;;;;4842417;29;20204;-79
2024/02/21 02:43:01;;;;;;;11.80;7.53;;;;;;;;;;4840077;29;20664;-78
2024/02/21 02:45:30;;;;;;;11.70;7.93;;;;;;;;;;4840832;29;20208;-79
2024/02/21 02:47:58;;;;;;;16.10;7.57;;;;;;;;;;4853118;29;20219;-79
2024/02/21 02:50:26;;;;;;;17.30;8.93;;;;;;;;;;4859392;29;20212;-78
2024/02/21 02:52:55;;;;;;;15.55;7.55;;;;;;;;;;4857913;29;20195;-81
2024/02/21 02:55:23;;;;;;;15.55;7.15;;;;;;;;;;4842047;29;20208;-81
2024/02/21 02:57:52;;;;;;;10.50;6.22;;;;;;;;;;4856815;29;20251;-81
2024/02/21 03:00:22;;;;;;;19.98;8.27;;;;;;;;;;4844566;29;20218;-81
2024/02/21 03:02:50;;;;;;;15.73;6.75;;;;;;;;;;4856264;29;20211;-81
2024/02/21 03:05:19;;;;;;;14.38;7.13;;;;;;;;;;4859373;29;20267;-81
2024/02/21 03:07:48;;;;;;;12.20;6.32;;;;;;;;;;4848785;29;20200;-80
2024/02/21 03:10:17;;;;;;;12.48;7.07;;;;;;;;;;4843801;29;20219;-81
2024/02/21 03:12:45;;;;;;;13.52;7.80;;;;;;;;;;4857292;29;20286;-79
2024/02/21 03:15:13;;;;;;;12.05;7.30;;;;;;;;;;4840960;29;20204;-81
2024/02/21 03:17:43;;;;;;;13.25;7.97;;;;;;;;;;4843117;29;20206;-81
2024/02/21 03:20:12;;;;;;;14.40;8.50;;;;;;;;;;4840811;29;20227;-80
2024/02/21 03:22:40;;;;;;;11.27;6.88;;;;;;;;;;4841468;29;20598;-79
2024/02/21 03:25:09;;;;;;;10.57;7.47;;;;;;;;;;4853309;29;20218;-79
2024/02/21 03:27:38;;;;;;;15.20;7.80;;;;;;;;;;4859201;29;20205;-79
2024/02/21 03:30:07;;;;;;;13.90;8.10;;;;;;;;;;4855691;29;20292;-79
2024/02/21 03:32:35;;;;;;;17.67;7.72;;;;;;;;;;4852174;29;20207;-80
2024/02/21 03:35:05;;;;;;;12.32;7.43;;;;;;;;;;4840846;29;20668;-79
2024/02/21 03:37:34;;;;;;;16.88;7.40;;;;;;;;;;4850011;29;20586;-79
2024/02/21 03:40:02;;;;;;;16.45;8.23;;;;;;;;;;4854745;29;20203;-79
2024/02/21 03:42:31;;;;;;;14.80;8.18;;;;;;;;;;4857602;29;20210;-79
2024/02/21 03:44:59;;;;;;;14.70;7.97;;;;;;;;;;4857740;29;20593;-78
2024/02/21 03:47:27;;;;;;;11.98;7.63;;;;;;;;;;4858886;29;20797;-78
2024/02/21 03:49:58;;;;;;;14.25;7.63;;;;;;;;;;4859051;29;20233;-79
2024/02/21 03:52:27;;;;;;;17.88;8.50;;;;;;;;;;4859398;29;20199;-78
2024/02/21 03:54:56;;;;;;;17.38;8.25;;;;;;;;;;4858881;29;20658;-78
2024/02/21 03:57:24;;;;;;;21.52;8.40;;;;;;;;;;4851998;29;20196;-79
2024/02/21 03:59:52;;;;;;;18.83;7.97;;;;;;;;;;4849899;29;20200;-79
2024/02/21 04:02:21;;;;;;;16.23;7.68;;;;;;;;;;4849498;29;20208;-79
2024/02/21 04:04:49;;;;;;;15.05;8.80;;;;;;;;;;4839383;29;20207;-79
2024/02/21 04:07:17;;;;;;;16.33;8.65;;;;;;;;;;4851962;29;20200;-79
2024/02/21 04:09:47;;;;;;;16.48;8.27;;;;;;;;;;4859102;29;20854;-80
2024/02/21 04:12:16;;;;;;;14.27;7.90;;;;;;;;;;4858913;29;20215;-78
2024/02/21 04:14:44;;;;;;;19.33;8.77;;;;;;;;;;4859776;29;20221;-79
2024/02/21 04:17:12;;;;;;;18.67;8.75;;;;;;;;;;4859343;29;20680;-79
2024/02/21 04:19:40;;;;;;;18.70;8.35;;;;;;;;;;4845086;29;20208;-79
2024/02/21 04:22:09;;;;;;;18.65;8.93;;;;;;;;;;4840335;29;20212;-79
2024/02/21 04:24:37;;;;;;;20.27;7.82;;;;;;;;;;4840326;29;20288;-79
2024/02/21 04:27:07;;;;;;;15.35;8.55;;;;;;;;;;4840436;29;20216;-79
2024/02/21 04:29:35;;;;;;;18.63;9.43;;;;;;;;;;4856792;29;20279;-80
2024/02/21 04:32:04;;;;;;;17.88;8.98;;;;;;;;;;4858594;29;20207;-79
2024/02/21 04:34:33;;;;;;;17.25;8.10;;;;;;;;;;4855939;29;20711;-79
2024/02/21 04:37:01;;;;;;;22.85;9.27;;;;;;;;;;4847831;29;20200;-79
2024/02/21 04:39:29;;;;;;;15.70;8.93;;;;;;;;;;4861517;29;20206;-79
2024/02/21 04:41:57;;;;;;;19.67;8.40;;;;;;;;;;4862270;29;20203;-78
2024/02/21 04:44:27;;;;;;;24.98;7.90;;;;;;;;;;4845870;29;20216;-78
2024/02/21 04:46:55;;;;;;;11.93;7.80;;;;;;;;;;4844251;29;20247;-79
2024/02/21 04:49:23;;;;;;;21.02;8.23;;;;;;;;;;4858730;29;20263;-80
2024/02/21 04:51:52;;;;;;;25.92;8.85;;;;;;;;;;4861926;29;20214;-80
2024/02/21 04:54:21;;;;;;;18.10;7.93;;;;;;;;;;4860594;29;20206;-79
2024/02/21 04:56:49;;;;;;;13.82;7.45;;;;;;;;;;4856270;29;20200;-79
2024/02/21 04:59:18;;;;;;;9.85;8.25;;;;;;;;;;4856996;29;20719;-79
2024/02/21 05:01:48;;;;;;;13.55;8.95;;;;;;;;;;4859821;29;20690;-78
2024/02/21 05:04:16;;;;;;;11.80;8.30;;;;;;;;;;4844714;29;20192;-79
2024/02/21 05:06:44;;;;;;;13.90;8.73;;;;;;;;;;4844562;29;20823;-79
2024/02/21 05:09:13;;;;;;;14.35;8.15;;;;;;;;;;4862698;29;20332;-78
2024/02/21 05:11:46;;;;;;;16.30;8.70;;;;;;;;;;4871101;29;20292;-77
2024/02/21 05:14:14;;;;;;;14.57;7.82;;;;;;;;;;4853042;29;20699;-79
2024/02/21 05:16:42;;;;;;;14.73;7.22;;;;;;;;;;4860082;29;20287;-79
2024/02/21 05:19:12;;;;;;;21.15;12.20;;;;;;;;;;4858641;29;20204;-79
2024/02/21 05:21:43;;;;;;;16.40;8.40;;;;;;;;;;4859082;29;20290;-79
2024/02/21 05:24:11;;;;;;;14.45;7.07;;;;;;;;;;4852376;29;20203;-79
2024/02/21 05:26:39;;;;;;;11.95;7.80;;;;;;;;;;4857980;29;20698;-79
2024/02/21 05:29:08;;;;;;;18.45;9.40;;;;;;;;;;4857116;29;20200;-79
2024/02/21 05:31:56;;;;;;;13.18;8.68;;;;;;;;;;4862465;29;20285;-78
2024/02/21 05:34:26;;;;;;;17.95;8.55;;;;;;;;;;4864085;29;20255;-78
2024/02/21 05:36:54;;;;;;;13.65;8.30;;;;;;;;;;4862941;29;20212;-79
2024/02/21 05:39:23;;;;;;;10.18;7.80;;;;;;;;;;4861280;29;20280;-79
2024/02/21 05:41:54;;;;;;;20.23;8.68;;;;;;;;;;4862630;29;20664;-79
2024/02/21 05:44:23;;;;;;;15.07;8.32;;;;;;;;;;4858720;29;20625;-79
2024/02/21 05:46:52;;;;;;;25.25;9.32;;;;;;;;;;4859803;29;20242;-79
2024/02/21 05:49:20;;;;;;;18.92;8.68;;;;;;;;;;4858309;29;20671;-79
2024/02/21 05:51:50;;;;;;;18.08;9.82;;;;;;;;;;4845439;29;20281;-80
2024/02/21 05:54:18;;;;;;;22.20;8.63;;;;;;;;;;4844723;29;20683;-79
2024/02/21 05:56:46;;;;;;;22.55;8.77;;;;;;;;;;4846763;29;20655;-80
2024/02/21 05:59:15;;;;;;;12.02;8.40;;;;;;;;;;4845638;29;20214;-79
2024/02/21 06:01:43;;;;;;;16.42;8.23;;;;;;;;;;4854911;29;20207;-78
2024/02/21 06:04:11;;;;;;;17.15;9.75;;;;;;;;;;4842840;29;20216;-79
2024/02/21 06:06:39;;;;;;;17.30;9.35;;;;;;;;;;4851300;29;20214;-79
2024/02/21 06:09:09;;;;;;;16.77;9.40;;;;;;;;;;4855840;29;20224;-79
2024/02/21 06:11:37;;;;;;;18.60;8.90;;;;;;;;;;4861368;29;20207;-80
2024/02/21 06:14:06;;;;;;;15.25;9.52;;;;;;;;;;4860888;29;20538;-81
2024/02/21 06:16:34;;;;;;;18.60;8.88;;;;;;;;;;4861442;29;20215;-82
2024/02/21 06:19:03;;;;;;;22.65;8.45;;;;;;;;;;4853955;29;20231;-81
2024/02/21 06:21:31;;;;;;;24.02;9.82;;;;;;;;;;4848286;29;20201;-81
2024/02/21 06:23:59;;;;;;;17.67;8.57;;;;;;;;;;4840654;29;20268;-77
2024/02/21 06:26:29;;;;;;;17.63;9.00;;;;;;;;;;4856947;29;20215;-78
2024/02/21 06:28:59;;;;;;;16.95;10.55;;;;;;;;;;4861006;29;20247;-77
2024/02/21 06:31:27;;;;;;;21.42;8.30;;;;;;;;;;4844547;29;20224;-79
2024/02/21 06:33:55;;;;;;;13.35;7.40;;;;;;;;;;4842069;29;20219;-79
2024/02/21 06:36:24;;;;;;;19.17;9.23;;;;;;;;;;4846278;29;20663;-79
2024/02/21 06:38:52;;;;;;;25.25;17.05;;;;;;;;;;4859084;29;20337;-79
2024/02/21 06:41:21;;;;;;;20.67;9.10;;;;;;;;;;4860537;29;20203;-81
2024/02/21 06:43:50;;;;;;;15.05;9.30;;;;;;;;;;4858820;29;20768;-77
2024/02/21 06:46:26;;;;;;;15.18;8.70;;;;;;;;;;4860331;29;20250;-78
2024/02/21 06:48:56;;;;;;;13.07;8.55;;;;;;;;;;4871055;29;20690;-78
2024/02/21 06:51:24;;;;;;;14.30;11.13;;;;;;;;;;4862258;29;20848;-78
2024/02/21 06:53:53;;;;;;;16.83;9.70;;;;;;;;;;4852387;29;20200;-79
2024/02/21 06:56:21;;;;;;;18.92;9.30;;;;;;;;;;4849302;29;20204;-78
2024/02/21 06:58:51;;;;;;;16.23;9.45;;;;;;;;;;4857714;29;20663;-79
2024/02/21 07:01:19;;;;;;;18.10;8.60;;;;;;;;;;4859662;29;20248;-78
2024/02/21 07:03:47;;;;;;;14.38;7.82;;;;;;;;;;4863831;29;20196;-77
2024/02/21 07:06:15;;;;;;;10.70;7.80;;;;;;;;;;4859012;29;20641;-78
2024/02/21 07:08:44;;;;;;;18.63;8.35;;;;;;;;;;4854795;29;20196;-78
2024/02/21 07:11:12;;;;;;;17.08;9.90;;;;;;;;;;4854148;29;20260;-78
2024/02/21 07:13:40;;;;;;;17.08;8.07;;;;;;;;;;4857783;29;20219;-78
2024/02/21 07:16:11;;;;;;;13.63;8.23;;;;;;;;;;4859297;29;20208;-77
2024/02/21 07:18:41;;;;;;;13.55;8.43;;;;;;;;;;4858324;29;20218;-77
2024/02/21 07:21:09;;;;;;;17.08;7.70;;;;;;;;;;4859024;29;20235;-79
2024/02/21 07:23:37;;;;;;;19.77;9.85;;;;;;;;;;4858806;29;20203;-79
2024/02/21 07:26:06;;;;;;;15.30;7.57;;;;;;;;;;4859089;29;20591;-79
2024/02/21 07:28:34;;;;;;;17.42;8.52;;;;;;;;;;4858606;29;20675;-79
2024/02/21 07:31:02;;;;;;;15.23;9.10;;;;;;;;;;4857149;29;20223;-78
2024/02/21 07:33:32;;;;;;;14.32;8.18;;;;;;;;;;4858851;29;20210;-78
2024/02/21 07:36:00;;;;;;;12.95;7.65;;;;;;;;;;4857431;29;20402;-77
2024/02/21 07:38:28;;;;;;;20.60;8.27;;;;;;;;;;4858551;29;20644;-78
2024/02/21 07:40:57;;;;;;;16.67;7.90;;;;;;;;;;4858148;29;20565;-79
2024/02/21 07:43:26;;;;;;;22.05;8.18;;;;;;;;;;4858049;29;20596;-78
2024/02/21 07:45:54;;;;;;;23.35;8.45;;;;;;;;;;4858274;29;20718;-78
2024/02/21 07:48:24;;;;;;;14.10;7.63;;;;;;;;;;4858723;29;20659;-78
2024/02/21 07:50:54;;;;;;;15.20;8.07;;;;;;;;;;4858582;29;20220;-78
2024/02/21 07:53:22;;;;;;;18.80;8.40;;;;;;;;;;4856795;29;20632;-79
2024/02/21 07:55:50;;;;;;;22.55;7.90;;;;;;;;;;4858773;29;20204;-79
2024/02/21 07:58:18;;;;;;;24.05;8.40;;;;;;;;;;4858225;29;20671;-78
2024/02/21 08:00:47;;;;;;;15.38;8.25;;;;;;;;;;4858439;29;20271;-78
2024/02/21 08:03:17;;;;;;;13.48;7.95;;;;;;;;;;4857625;29;20251;-79
2024/02/21 08:05:45;;;;;;;14.68;7.80;;;;;;;;;;4858624;29;20207;-78
2024/02/21 08:08:18;;;;;;;14.60;8.30;;;;;;;;;;4858553;29;20212;-79
2024/02/21 08:10:46;;;;;;;17.52;9.18;;;;;;;;;;4860714;29;20231;-78
2024/02/21 08:13:14;;;;;;;14.50;8.85;;;;;;;;;;4861696;29;20690;-78
2024/02/21 08:15:43;;;;;;;12.80;7.40;;;;;;;;;;4861662;29;20203;-78
2024/02/21 08:18:11;;;;;;;12.10;7.70;;;;;;;;;;4861435;29;20213;-78
2024/02/21 08:20:39;;;;;;;27.13;8.32;;;;;;;;;;4862215;29;20207;-79
2024/02/21 08:23:07;;;;;;;11.35;7.57;;;;;;;;;;4862521;29;20203;-80
2024/02/21 08:25:37;;;;;;;14.77;8.15;;;;;;;;;;4862163;29;20212;-79
2024/02/21 08:28:07;;;;;;;14.82;8.48;;;;;;;;;;4860591;29;20215;-78
2024/02/21 08:30:35;;;;;;;13.45;8.05;;;;;;;;;;4861973;29;20203;-77
2024/02/21 08:33:04;;;;;;;20.48;8.05;;;;;;;;;;4861191;29;20223;-78
2024/02/21 08:35:33;;;;;;;15.85;8.15;;;;;;;;;;4846820;29;20215;-78
2024/02/21 08:38:01;;;;;;;15.35;7.82;;;;;;;;;;4861462;29;20616;-79
2024/02/21 08:40:29;;;;;;;14.85;7.30;;;;;;;;;;4860945;29;20210;-79
2024/02/21 08:42:59;;;;;;;19.35;8.77;;;;;;;;;;4860040;29;20207;-78
2024/02/21 08:45:27;;;;;;;19.83;7.82;;;;;;;;;;4859772;29;20215;-79
2024/02/21 08:47:58;;;;;;;13.55;7.80;;;;;;;;;;4860486;29;20218;-78
2024/02/21 08:50:26;;;;;;;9.77;7.60;;;;;;;;;;4860129;29;20203;-79
2024/02/21 08:52:55;;;;;;;12.07;6.90;;;;;;;;;;4860384;29;20259;-79
2024/02/21 08:55:23;;;;;;;12.65;8.68;;;;;;;;;;4861289;29;20208;-78
2024/02/21 08:57:52;;;;;;;13.75;9.15;;;;;;;;;;4861408;29;20697;-78
2024/02/21 09:00:26;;;;;;;16.33;7.75;;;;;;;;;;4851616;29;20217;-78
2024/02/21 09:02:55;;;;;;;16.90;7.85;;;;;;;;;;4861333;29;20303;-79
2024/02/21 09:05:25;;;;;;;12.98;7.25;;;;;;;;;;4871139;29;20262;-78
2024/02/21 09:07:54;;;;;;;16.33;8.20;;;;;;;;;;4876191;29;20251;-79
2024/02/21 09:10:22;;;;;;;15.43;7.25;;;;;;;;;;4876414;29;20223;-79
2024/02/21 09:13:07;;;;;;;10.85;6.85;;;;;;;;;;4882502;29;20250;-79
2024/02/21 09:15:39;;;;;;;10.07;6.32;;;;;;;;;;4863362;29;20254;-80
2024/02/21 09:18:08;;;;;;;21.42;7.32;;;;;;;;;;4876904;29;20215;-80
2024/02/21 09:20:36;;;;;;;13.20;7.85;;;;;;;;;;4860669;29;20431;-80
2024/02/21 09:23:05;;;;;;;15.27;7.53;;;;;;;;;;4859626;29;20723;-79
2024/02/21 09:25:33;;;;;;;9.82;6.38;;;;;;;;;;4870106;29;20788;-78
2024/02/21 09:28:03;;;;;;;11.15;7.15;;;;;;;;;;4872108;29;20253;-79
2024/02/21 09:30:31;;;;;;;15.77;6.53;;;;;;;;;;4860596;29;20219;-78
2024/02/21 09:33:01;;;;;;;15.32;7.53;;;;;;;;;;4861236;29;20215;-78
2024/02/21 09:35:29;;;;;;;14.07;6.85;;;;;;;;;;4860378;29;20667;-78
2024/02/21 09:37:58;;;;;;;12.20;6.85;;;;;;;;;;4860599;29;20199;-79
2024/02/21 09:40:26;;;;;;;12.07;6.20;;;;;;;;;;4842248;29;20216;-78
2024/02/21 09:43:02;;;;;;;14.20;6.97;;;;;;;;;;4841803;29;20188;-78
2024/02/21 09:45:31;;;;;;;10.60;6.70;;;;;;;;;;4841103;29;20703;-78
2024/02/21 09:48:08;;;;;;;11.60;6.63;;;;;;;;;;4841233;29;20242;-78
2024/02/21 09:50:40;;;;;;;11.45;7.03;;;;;;;;;;4842682;29;20244;-77
2024/02/21 09:53:09;;;;;;;11.20;7.22;;;;;;;;;;4842302;29;20226;-77
2024/02/21 09:55:40;;;;;;;8.20;6.63;;;;;;;;;;4844481;29;20203;-77
2024/02/21 09:58:10;;;;;;;15.30;8.52;;;;;;;;;;4864471;29;20295;-79
2024/02/21 10:00:42;;;;;;;11.77;6.78;;;;;;;;;;4872769;29;20275;-79
2024/02/21 10:03:14;;;;;;;18.42;6.80;;;;;;;;;;4861712;29;20624;-79
2024/02/21 10:05:49;;;;;;;13.45;5.90;;;;;;;;;;4863437;29;20219;-80
2024/02/21 10:08:18;;;;;;;14.52;7.03;;;;;;;;;;4844362;29;20632;-80
2024/02/21 10:10:50;;;;;;;12.13;6.18;;;;;;;;;;4859144;29;20215;-80
2024/02/21 10:13:26;;;;;;;8.52;5.82;;;;;;;;;;4859898;29;20231;-78
2024/02/21 10:16:02;;;;;;;11.85;6.25;;;;;;;;;;4860390;29;20207;-79
2024/02/21 10:18:32;;;;;;;9.52;6.53;;;;;;;;;;4859201;29;20206;-80
2024/02/21 10:21:04;;;;;;;11.85;5.72;;;;;;;;;;4860407;29;20200;-79
2024/02/21 10:23:45;;;;;;;8.15;5.57;;;;;;;;;;4859960;29;20379;-80
2024/02/21 10:26:15;;;;;;;14.00;5.40;;;;;;;;;;4860124;29;20229;-80
2024/02/21 10:28:44;;;;;;;9.23;5.65;;;;;;;;;;4860548;29;20221;-80
2024/02/21 10:31:13;;;;;;;6.38;4.93;;;;;;;;;;4861080;29;20200;-79
2024/02/21 10:33:43;;;;;;;14.15;5.47;;;;;;;;;;4870209;29;20218;-79
2024/02/21 10:36:11;;;;;;;6.28;4.57;;;;;;;;;;4863076;29;20294;-79
2024/02/21 10:38:39;;;;;;;6.97;5.30;;;;;;;;;;4861800;29;20211;-79
2024/02/21 10:41:08;;;;;;;15.27;5.25;;;;;;;;;;4866495;29;20731;-79
2024/02/21 10:43:41;;;;;;;9.55;5.75;;;;;;;;;;4860367;29;20286;-79
2024/02/21 10:46:10;;;;;;;10.02;5.88;;;;;;;;;;4869435;29;20242;-78
2024/02/21 10:48:47;;;;;;;7.57;5.10;;;;;;;;;;4865662;29;20278;-78
2024/02/21 10:51:19;;;;;;;9.77;5.10;;;;;;;;;;4865850;29;20317;-79
2024/02/21 10:53:52;;;;;;;13.07;5.90;;;;;;;;;;4867439;29;20294;-79
2024/02/21 10:56:24;;;;;;;12.20;6.28;;;;;;;;;;4866678;29;20293;-79
2024/02/21 10:58:56;;;;;;;11.52;5.90;;;;;;;;;;4861923;29;20227;-78
2024/02/21 11:01:27;;;;;;;13.32;6.40;;;;;;;;;;4866282;29;20747;-79
2024/02/21 11:03:56;;;;;;;7.53;6.43;;;;;;;;;;4862705;29;20243;-80
2024/02/21 11:06:27;;;;;;;11.43;7.00;;;;;;;;;;4859152;29;20643;-79
2024/02/21 11:09:03;;;;;;;9.18;6.40;;;;;;;;;;4856626;29;20208;-81
2024/02/21 11:11:34;;;;;;;10.45;7.25;;;;;;;;;;4855968;29;20686;-79
2024/02/21 11:14:06;;;;;;;14.60;6.50;;;;;;;;;;4858133;29;20214;-79
2024/02/21 11:16:39;;;;;;;9.23;6.43;;;;;;;;;;4856994;29;20639;-79
2024/02/21 11:19:09;;;;;;;15.15;6.25;;;;;;;;;;4858059;29;20620;-79
2024/02/21 11:21:39;;;;;;;7.55;6.75;;;;;;;;;;4858638;29;20698;-79
2024/02/21 11:24:07;;;;;;;9.55;5.85;;;;;;;;;;4858353;29;20668;-79
2024/02/21 11:26:39;;;;;;;11.85;6.70;;;;;;;;;;4859141;29;20207;-79
2024/02/21 11:29:09;;;;;;;12.90;7.47;;;;;;;;;;4858951;29;20291;-79
2024/02/21 11:31:43;;;;;;;12.15;6.63;;;;;;;;;;4861022;29;20588;-80
2024/02/21 11:34:11;;;;;;;11.27;6.00;;;;;;;;;;4857982;29;20203;-80
2024/02/21 11:36:50;;;;;;;12.40;5.90;;;;;;;;;;4859073;29;20604;-79
2024/02/21 11:39:22;;;;;;;11.63;6.60;;;;;;;;;;4855537;29;21227;-80
2024/02/21 11:42:02;;;;;;;9.57;6.53;;;;;;;;;;4858558;29;20635;-80
2024/02/21 11:44:31;;;;;;;10.50;5.90;;;;;;;;;;4856906;29;20636;-79
2024/02/21 11:47:00;;;;;;;11.30;7.03;;;;;;;;;;4862263;29;20655;-80
2024/02/21 11:49:31;;;;;;;6.32;5.70;;;;;;;;;;4862380;29;20284;-79
2024/02/21 11:52:04;;;;;;;9.80;6.63;;;;;;;;;;4861795;29;20222;-80
2024/02/21 11:54:32;;;;;;;11.90;7.15;;;;;;;;;;4863180;29;20640;-78
2024/02/21 11:57:00;;;;;;;9.07;6.70;;;;;;;;;;4861032;29;20218;-80
2024/02/21 11:59:28;;;;;;;9.98;7.10;;;;;;;;;;4862064;29;20643;-81
2024/02/21 12:02:00;;;;;;;11.70;8.40;;;;;;;;;;4849096;29;20680;-81
2024/02/21 12:04:30;;;;;;;8.33;6.67;;;;;;;;;;4853135;29;20648;-81
2024/02/21 12:06:58;;;;;;;9.40;8.00;;;;;;;;;;4861942;29;20643;-80
2024/02/21 12:09:28;;;;;;;8.77;7.17;;;;;;;;;;4863095;29;20631;-80
2024/02/21 12:11:59;;;;;;;9.03;7.60;;;;;;;;;;4861783;29;21194;-81
2024/02/21 12:14:28;;;;;;;9.20;7.30;;;;;;;;;;4869614;29;21038;-81
2024/02/21 12:16:58;;;;;;;12.70;8.07;;;;;;;;;;4870078;29;20616;-81
2024/02/21 12:19:27;;;;;;;9.00;8.13;;;;;;;;;;4866523;29;21003;-79
2024/02/21 12:21:57;;;;;;;9.70;8.20;;;;;;;;;;4869149;29;20628;-80
2024/02/21 12:24:26;;;;;;;13.60;9.00;;;;;;;;;;4872633;29;20635;-81
2024/02/21 12:26:58;;;;;;;9.90;8.18;;;;;;;;;;4873363;29;21137;-82
2024/02/21 12:29:30;;;;;;;12.10;7.10;;;;;;;;;;4849717;29;20238;-79
2024/02/21 12:31:58;;;;;;;10.17;7.50;;;;;;;;;;4872581;29;20648;-79
2024/02/21 12:34:27;;;;;;;8.20;7.40;;;;;;;;;;4869283;29;20669;-79
2024/02/21 12:36:55;;;;;;;10.20;7.87;;;;;;;;;;4871396;29;20644;-80
2024/02/21 12:39:23;;;;;;;9.77;7.50;;;;;;;;;;4865897;29;20638;-79
2024/02/21 12:41:54;;;;;;;9.67;7.60;;;;;;;;;;4868612;29;20585;-79
2024/02/21 12:44:23;;;;;;;14.17;8.00;;;;;;;;;;4867422;29;21197;-78
2024/02/21 12:46:53;;;;;;;10.07;7.67;;;;;;;;;;4871018;29;20639;-79
2024/02/21 12:49:21;;;;;;;9.63;7.10;;;;;;;;;;4863864;29;21135;-79
2024/02/21 12:51:49;;;;;;;11.37;7.97;;;;;;;;;;4861662;29;21224;-79
2024/02/21 12:54:18;;;;;;;19.87;7.57;;;;;;;;;;4861554;29;20703;-79
2024/02/21 12:56:46;;;;;;;10.00;6.90;;;;;;;;;;4859985;29;20634;-79
2024/02/21 12:59:14;;;;;;;17.03;8.83;;;;;;;;;;4859256;29;20639;-79
2024/02/21 13:01:45;;;;;;;10.87;7.57;;;;;;;;;;4860722;29;20635;-79
2024/02/21 13:04:13;;;;;;;10.63;8.47;;;;;;;;;;4861722;29;21175;-78
2024/02/21 13:06:42;;;;;;;15.20;8.80;;;;;;;;;;4861558;29;20599;-78
2024/02/21 13:09:11;;;;;;;10.37;7.47;;;;;;;;;;4861279;29;20632;-79
2024/02/21 13:11:40;;;;;;;10.18;7.78;;;;;;;;;;4861642;29;20604;-79
2024/02/21 13:14:08;;;;;;;11.27;8.75;;;;;;;;;;4859055;29;20223;-78
2024/02/21 13:16:39;;;;;;;8.35;7.60;;;;;;;;;;4861649;29;20196;-78
2024/02/21 13:19:08;;;;;;;10.27;7.67;;;;;;;;;;4862403;29;20208;-79
2024/02/21 13:21:37;;;;;;;9.70;8.10;;;;;;;;;;4861548;29;20646;-79
2024/02/21 13:24:06;;;;;;;8.30;7.50;;;;;;;;;;4859497;29;20210;-80
2024/02/21 13:26:34;;;;;;;7.82;7.05;;;;;;;;;;4861397;29;20584;-79
2024/02/21 13:29:03;;;;;;;10.68;7.75;;;;;;;;;;4860853;29;20688;-79
2024/02/21 13:31:31;;;;;;;11.07;7.53;;;;;;;;;;4861445;29;20629;-79
2024/02/21 13:33:59;;;;;;;7.33;6.63;;;;;;;;;;4861295;29;20663;-79
2024/02/21 13:36:34;;;;;;;13.43;8.02;;;;;;;;;;4860792;29;20639;-78
2024/02/21 13:39:04;;;;;;;13.20;7.85;;;;;;;;;;4860841;29;20210;-78
2024/02/21 13:41:33;;;;;;;13.10;7.30;;;;;;;;;;4861193;29;20215;-80
2024/02/21 13:44:04;;;;;;;8.57;7.10;;;;;;;;;;4860973;29;20639;-79
2024/02/21 13:46:34;;;;;;;8.60;7.37;;;;;;;;;;4859732;29;20651;-79
2024/02/21 13:49:07;;;;;;;12.57;7.93;;;;;;;;;;4860542;29;20661;-80
2024/02/21 13:51:37;;;;;;;7.53;6.93;;;;;;;;;;4859472;29;20632;-79
2024/02/21 13:54:06;;;;;;;9.70;8.40;;;;;;;;;;4859699;29;20664;-81
2024/02/21 13:56:34;;;;;;;7.75;7.15;;;;;;;;;;4860742;29;20636;-78
2024/02/21 13:59:04;;;;;;;10.85;8.05;;;;;;;;;;4860405;29;20557;-79
2024/02/21 14:01:32;;;;;;;13.32;9.68;;;;;;;;;;4857923;29;20203;-78
2024/02/21 14:04:01;;;;;;;11.37;7.60;;;;;;;;;;4858510;29;20555;-78
2024/02/21 14:06:42;;;;;;;12.33;7.43;;;;;;;;;;4858537;29;20604;-78
2024/02/21 14:09:10;;;;;;;10.73;8.23;;;;;;;;;;4845982;29;20640;-78
2024/02/21 14:11:43;;;;;;;9.50;8.50;;;;;;;;;;4873677;29;20596;-79
2024/02/21 14:14:11;;;;;;;11.73;10.50;;;;;;;;;;4858936;29;20674;-79
2024/02/21 14:16:41;;;;;;;10.85;8.80;;;;;;;;;;4859270;29;20633;-79
2024/02/21 14:19:11;;;;;;;9.17;8.33;;;;;;;;;;4858703;29;20206;-80
2024/02/21 14:21:41;;;;;;;8.10;7.30;;;;;;;;;;4858427;29;20640;-79
2024/02/21 14:24:09;;;;;;;10.60;7.82;;;;;;;;;;4858288;29;20624;-79
2024/02/21 14:26:41;;;;;;;12.07;6.60;;;;;;;;;;4859036;29;20199;-80
2024/02/21 14:29:09;;;;;;;16.27;8.27;;;;;;;;;;4860257;29;20301;-79
2024/02/21 14:31:37;;;;;;;9.13;6.97;;;;;;;;;;4858456;29;20207;-79
2024/02/21 14:34:07;;;;;;;8.00;7.10;;;;;;;;;;4860030;29;20679;-79
2024/02/21 14:36:35;;;;;;;8.57;7.78;;;;;;;;;;4859653;29;20620;-79
2024/02/21 14:39:05;;;;;;;7.60;6.80;;;;;;;;;;4859644;29;20648;-78
2024/02/21 14:41:39;;;;;;;12.50;7.00;;;;;;;;;;4855348;29;21230;-78
2024/02/21 14:44:09;;;;;;;11.65;7.30;;;;;;;;;;4858503;29;20666;-80